sensor_id;sensor_type;location;lat;lon;timestamp;temperature;humidity
20839;DHT22;10580;51.092;6.828;2023-02-24T00:00:05;6.70;99.90
20839;DHT22;10580;51.092;6.828;2023-02-24T00:02:58;6.70;99.90
20839;DHT22;10580;51.092;6.828;2023-02-24T00:05:23;6.60;99.90
20839;DHT22;10580;51.092;6.828;2023-02-24T00:07:49;6.70;99.90
20839;DHT22;10580;51.092;6.828;2023-02-24T00:10:14;6.60;99.90
20839;DHT22;10580;51.092;6.828;2023-02-24T00:12:44;6.60;99.90
20839;DHT22;10580;51.092;6.828;2023-02-24T00:15:14;6.60;99.90
20839;DHT22;10580;51.092;6.828;2023-02-24T00:17:41;6.60;99.90
20839;DHT22;10580;51.092;6.828;2023-02-24T00:20:10;6.60;99.90
20839;DHT22;10580;51.092;6.828;2023-02-24T00:22:37;6.60;99.90
20839;DHT22;10580;51.092;6.828;2023-02-24T00:25:03;6.50;99.90
20839;DHT22;10580;51.092;6.828;2023-02-24T00:27:29;6.50;99.90
20839;DHT22;10580;51.092;6.828;2023-02-24T00:29:56;6.50;99.90
20839;DHT22;10580;51.092;6.828;2023-02-24T00:32:22;6.40;99.90
20839;DHT22;10580;51.092;6.828;2023-02-24T00:34:47;6.40;99.90
20839;DHT22;10580;51.092;6.828;2023-02-24T00:37:13;6.40;99.90
20839;DHT22;10580;51.092;6.828;2023-02-24T00:39:40;6.40;99.90
20839;DHT22;10580;51.092;6.828;2023-02-24T00:42:09;6.40;99.90
20839;DHT22;10580;51.092;6.828;2023-02-24T00:44:38;6.40;99.90
20839;DHT22;10580;51.092;6.828;2023-02-24T00:47:05;6.40;99.90
20839;DHT22;10580;51.092;6.828;2023-02-24T00:49:32;6.40;99.90
20839;DHT22;10580;51.092;6.828;2023-02-24T00:52:00;6.40;99.90
20839;DHT22;10580;51.092;6.828;2023-02-24T00:54:29;6.40;99.90
20839;DHT22;10580;51.092;6.828;2023-02-24T00:56:55;6.50;99.90
20839;DHT22;10580;51.092;6.828;2023-02-24T00:59:22;6.50;99.90
20839;DHT22;10580;51.092;6.828;2023-02-24T01:01:48;6.40;99.90
20839;DHT22;10580;51.092;6.828;2023-02-24T01:04:16;6.40;99.90
20839;DHT22;10580;51.092;6.828;2023-02-24T01:06:45;6.40;99.90
20839;DHT22;10580;51.092;6.828;2023-02-24T01:09:13;6.40;99.90
20839;DHT22;10580;51.092;6.828;2023-02-24T01:11:40;6.40;99.90
20839;DHT22;10580;51.092;6.828;2023-02-24T01:14:30;6.40;99.90
20839;DHT22;10580;51.092;6.828;2023-02-24T01:16:56;6.30;99.90
20839;DHT22;10580;51.092;6.828;2023-02-24T01:19:28;6.30;99.90
20839;DHT22;10580;51.092;6.828;2023-02-24T01:21:56;6.30;99.90
20839;DHT22;10580;51.092;6.828;2023-02-24T01:24:23;6.30;99.90
20839;DHT22;10580;51.092;6.828;2023-02-24T01:26:49;6.20;99.90
20839;DHT22;10580;51.092;6.828;2023-02-24T01:29:14;6.10;99.90
20839;DHT22;10580;51.092;6.828;2023-02-24T01:31:40;6.00;99.90
20839;DHT22;10580;51.092;6.828;2023-02-24T01:34:09;5.90;99.90
20839;DHT22;10580;51.092;6.828;2023-02-24T01:36:36;5.90;99.90
20839;DHT22;10580;51.092;6.828;2023-02-24T01:39:03;5.90;99.90
20839;DHT22;10580;51.092;6.828;2023-02-24T01:41:31;5.90;99.90
20839;DHT22;10580;51.092;6.828;2023-02-24T01:43:59;5.90;99.90
20839;DHT22;10580;51.092;6.828;2023-02-24T01:46:40;5.90;99.90
20839;DHT22;10580;51.092;6.828;2023-02-24T01:49:14;5.90;99.90
20839;DHT22;10580;51.092;6.828;2023-02-24T01:51:46;5.90;99.90
20839;DHT22;10580;51.092;6.828;2023-02-24T01:54:15;5.90;99.90
20839;DHT22;10580;51.092;6.828;2023-02-24T01:56:42;5.90;99.90
20839;DHT22;10580;51.092;6.828;2023-02-24T01:59:08;5.90;99.90
20839;DHT22;10580;51.092;6.828;2023-02-24T02:01:35;5.80;99.90
20839;DHT22;10580;51.092;6.828;2023-02-24T02:04:19;5.80;99.90
20839;DHT22;10580;51.092;6.828;2023-02-24T02:06:49;5.80;99.90
20839;DHT22;10580;51.092;6.828;2023-02-24T02:09:15;5.80;99.90
20839;DHT22;10580;51.092;6.828;2023-02-24T02:11:41;5.80;99.90
20839;DHT22;10580;51.092;6.828;2023-02-24T02:14:08;5.70;99.90
20839;DHT22;10580;51.092;6.828;2023-02-24T02:34:31;5.70;99.90
20839;DHT22;10580;51.092;6.828;2023-02-24T02:37:08;5.70;99.90
20839;DHT22;10580;51.092;6.828;2023-02-24T02:40:03;5.60;99.90
20839;DHT22;10580;51.092;6.828;2023-02-24T02:42:54;5.70;99.90
20839;DHT22;10580;51.092;6.828;2023-02-24T02:45:29;5.60;99.90
20839;DHT22;10580;51.092;6.828;2023-02-24T02:48:21;5.60;99.90
20839;DHT22;10580;51.092;6.828;2023-02-24T02:50:56;5.60;99.90
20839;DHT22;10580;51.092;6.828;2023-02-24T02:53:35;5.60;99.90
20839;DHT22;10580;51.092;6.828;2023-02-24T02:58:48;5.60;99.90
20839;DHT22;10580;51.092;6.828;2023-02-24T03:01:19;5.60;99.90
20839;DHT22;10580;51.092;6.828;2023-02-24T03:03:53;5.50;99.90
20839;DHT22;10580;51.092;6.828;2023-02-24T03:06:29;5.50;99.90
20839;DHT22;10580;51.092;6.828;2023-02-24T03:09:13;5.60;99.90
20839;DHT22;10580;51.092;6.828;2023-02-24T03:11:46;5.60;99.90
20839;DHT22;10580;51.092;6.828;2023-02-24T03:14:15;5.50;99.90
20839;DHT22;10580;51.092;6.828;2023-02-24T03:16:44;5.50;99.90
20839;DHT22;10580;51.092;6.828;2023-02-24T03:19:14;5.50;99.90
20839;DHT22;10580;51.092;6.828;2023-02-24T03:21:49;5.50;99.90
20839;DHT22;10580;51.092;6.828;2023-02-24T03:24:16;5.50;99.90
20839;DHT22;10580;51.092;6.828;2023-02-24T03:29:23;5.60;99.90
20839;DHT22;10580;51.092;6.828;2023-02-24T03:32:25;5.60;99.90
20839;DHT22;10580;51.092;6.828;2023-02-24T03:34:57;5.50;99.90
20839;DHT22;10580;51.092;6.828;2023-02-24T03:37:26;5.50;99.90
20839;DHT22;10580;51.092;6.828;2023-02-24T03:39:59;5.50;99.90
20839;DHT22;10580;51.092;6.828;2023-02-24T03:42:33;5.50;99.90
20839;DHT22;10580;51.092;6.828;2023-02-24T03:44:59;5.50;99.90
20839;DHT22;10580;51.092;6.828;2023-02-24T03:47:26;5.40;99.90
20839;DHT22;10580;51.092;6.828;2023-02-24T03:49:52;5.40;99.90
20839;DHT22;10580;51.092;6.828;2023-02-24T03:52:42;5.40;99.90
20839;DHT22;10580;51.092;6.828;2023-02-24T03:55:25;5.40;99.90
20839;DHT22;10580;51.092;6.828;2023-02-24T04:04:31;5.40;99.90
20839;DHT22;10580;51.092;6.828;2023-02-24T04:07:13;5.40;99.90
20839;DHT22;10580;51.092;6.828;2023-02-24T04:15:23;5.20;99.90
20839;DHT22;10580;51.092;6.828;2023-02-24T04:18:05;5.10;99.90
20839;DHT22;10580;51.092;6.828;2023-02-24T04:20:33;5.10;99.90
20839;DHT22;10580;51.092;6.828;2023-02-24T04:23:10;5.10;99.90
20839;DHT22;10580;51.092;6.828;2023-02-24T04:25:37;5.10;99.90
20839;DHT22;10580;51.092;6.828;2023-02-24T04:28:04;5.10;99.90
20839;DHT22;10580;51.092;6.828;2023-02-24T04:30:38;5.10;99.90
20839;DHT22;10580;51.092;6.828;2023-02-24T04:33:05;5.10;99.90
20839;DHT22;10580;51.092;6.828;2023-02-24T04:35:31;5.10;99.90
20839;DHT22;10580;51.092;6.828;2023-02-24T04:37:57;5.00;99.90
20839;DHT22;10580;51.092;6.828;2023-02-24T04:40:23;5.00;99.90
20839;DHT22;10580;51.092;6.828;2023-02-24T04:42:51;5.00;99.90
20839;DHT22;10580;51.092;6.828;2023-02-24T04:45:18;4.90;99.90
20839;DHT22;10580;51.092;6.828;2023-02-24T04:47:46;4.90;99.90
20839;DHT22;10580;51.092;6.828;2023-02-24T04:50:17;4.90;99.90
20839;DHT22;10580;51.092;6.828;2023-02-24T04:52:54;4.90;99.90
20839;DHT22;10580;51.092;6.828;2023-02-24T04:55:22;4.80;99.90
20839;DHT22;10580;51.092;6.828;2023-02-24T04:57:51;4.80;99.90
20839;DHT22;10580;51.092;6.828;2023-02-24T05:00:17;4.70;99.90
20839;DHT22;10580;51.092;6.828;2023-02-24T05:02:55;4.70;99.90
20839;DHT22;10580;51.092;6.828;2023-02-24T05:05:23;4.70;99.90
20839;DHT22;10580;51.092;6.828;2023-02-24T05:07:51;4.70;99.90
20839;DHT22;10580;51.092;6.828;2023-02-24T05:10:17;4.60;99.90
20839;DHT22;10580;51.092;6.828;2023-02-24T05:12:43;4.60;99.90
20839;DHT22;10580;51.092;6.828;2023-02-24T05:15:10;4.60;99.90
20839;DHT22;10580;51.092;6.828;2023-02-24T05:17:39;4.60;99.90
20839;DHT22;10580;51.092;6.828;2023-02-24T05:20:06;4.70;99.90
20839;DHT22;10580;51.092;6.828;2023-02-24T05:22:50;4.70;99.90
20839;DHT22;10580;51.092;6.828;2023-02-24T05:25:17;4.70;99.90
20839;DHT22;10580;51.092;6.828;2023-02-24T05:27:42;4.70;99.90
20839;DHT22;10580;51.092;6.828;2023-02-24T05:30:08;4.70;99.90
20839;DHT22;10580;51.092;6.828;2023-02-24T05:32:35;4.70;99.90
20839;DHT22;10580;51.092;6.828;2023-02-24T05:35:01;4.70;99.90
20839;DHT22;10580;51.092;6.828;2023-02-24T05:37:26;4.70;99.90
20839;DHT22;10580;51.092;6.828;2023-02-24T05:39:56;4.60;99.90
20839;DHT22;10580;51.092;6.828;2023-02-24T05:42:25;4.60;99.90
20839;DHT22;10580;51.092;6.828;2023-02-24T05:44:52;4.60;99.90
20839;DHT22;10580;51.092;6.828;2023-02-24T05:47:18;4.60;99.90
20839;DHT22;10580;51.092;6.828;2023-02-24T05:49:44;4.60;99.90
20839;DHT22;10580;51.092;6.828;2023-02-24T05:52:12;4.50;99.90
20839;DHT22;10580;51.092;6.828;2023-02-24T05:54:42;4.60;99.90
20839;DHT22;10580;51.092;6.828;2023-02-24T05:57:14;4.60;99.90
20839;DHT22;10580;51.092;6.828;2023-02-24T05:59:49;4.60;99.90
20839;DHT22;10580;51.092;6.828;2023-02-24T06:02:17;4.60;99.90
20839;DHT22;10580;51.092;6.828;2023-02-24T06:04:52;4.50;99.90
20839;DHT22;10580;51.092;6.828;2023-02-24T06:07:22;4.60;99.90
20839;DHT22;10580;51.092;6.828;2023-02-24T06:09:51;4.60;99.90
20839;DHT22;10580;51.092;6.828;2023-02-24T06:12:32;4.60;99.90
20839;DHT22;10580;51.092;6.828;2023-02-24T06:14:58;4.60;99.90
20839;DHT22;10580;51.092;6.828;2023-02-24T06:17:25;4.60;99.90
20839;DHT22;10580;51.092;6.828;2023-02-24T06:19:52;4.60;99.90
20839;DHT22;10580;51.092;6.828;2023-02-24T06:22:19;4.60;99.90
20839;DHT22;10580;51.092;6.828;2023-02-24T06:24:46;4.60;99.90
20839;DHT22;10580;51.092;6.828;2023-02-24T06:27:15;4.60;99.90
20839;DHT22;10580;51.092;6.828;2023-02-24T06:29:45;4.60;99.90
20839;DHT22;10580;51.092;6.828;2023-02-24T06:32:12;4.60;99.90
20839;DHT22;10580;51.092;6.828;2023-02-24T06:34:38;4.50;99.90
20839;DHT22;10580;51.092;6.828;2023-02-24T06:37:04;4.50;99.90
20839;DHT22;10580;51.092;6.828;2023-02-24T06:39:32;4.50;99.90
20839;DHT22;10580;51.092;6.828;2023-02-24T06:41:59;4.40;99.90
20839;DHT22;10580;51.092;6.828;2023-02-24T06:44:33;4.50;99.90
20839;DHT22;10580;51.092;6.828;2023-02-24T06:46:59;4.60;99.90
20839;DHT22;10580;51.092;6.828;2023-02-24T06:49:25;4.60;99.90
20839;DHT22;10580;51.092;6.828;2023-02-24T06:51:52;4.60;99.90
20839;DHT22;10580;51.092;6.828;2023-02-24T06:54:22;4.70;99.90
20839;DHT22;10580;51.092;6.828;2023-02-24T06:56:49;4.70;99.90
20839;DHT22;10580;51.092;6.828;2023-02-24T06:59:14;4.70;99.90
20839;DHT22;10580;51.092;6.828;2023-02-24T07:01:46;4.70;99.90
20839;DHT22;10580;51.092;6.828;2023-02-24T07:04:13;4.70;99.90
20839;DHT22;10580;51.092;6.828;2023-02-24T07:06:41;4.70;99.90
20839;DHT22;10580;51.092;6.828;2023-02-24T07:09:12;4.70;99.90
20839;DHT22;10580;51.092;6.828;2023-02-24T07:11:39;4.70;99.90
20839;DHT22;10580;51.092;6.828;2023-02-24T07:14:07;4.70;99.90
20839;DHT22;10580;51.092;6.828;2023-02-24T07:16:33;4.70;99.90
20839;DHT22;10580;51.092;6.828;2023-02-24T07:19:01;4.70;99.90
20839;DHT22;10580;51.092;6.828;2023-02-24T07:21:29;4.80;99.90
20839;DHT22;10580;51.092;6.828;2023-02-24T07:24:07;4.70;99.90
20839;DHT22;10580;51.092;6.828;2023-02-24T07:26:33;4.80;99.90
20839;DHT22;10580;51.092;6.828;2023-02-24T07:28:59;4.80;99.90
20839;DHT22;10580;51.092;6.828;2023-02-24T07:31:29;4.80;99.90
20839;DHT22;10580;51.092;6.828;2023-02-24T07:33:57;4.80;99.90
20839;DHT22;10580;51.092;6.828;2023-02-24T07:36:25;4.70;99.90
20839;DHT22;10580;51.092;6.828;2023-02-24T07:38:55;4.70;99.90
20839;DHT22;10580;51.092;6.828;2023-02-24T07:41:23;4.80;99.90
20839;DHT22;10580;51.092;6.828;2023-02-24T07:43:51;4.80;99.90
20839;DHT22;10580;51.092;6.828;2023-02-24T07:46:25;4.90;99.90
20839;DHT22;10580;51.092;6.828;2023-02-24T07:48:56;4.90;99.90
20839;DHT22;10580;51.092;6.828;2023-02-24T07:51:25;4.90;99.90
20839;DHT22;10580;51.092;6.828;2023-02-24T07:53:58;5.00;99.90
20839;DHT22;10580;51.092;6.828;2023-02-24T07:56:26;5.00;99.90
20839;DHT22;10580;51.092;6.828;2023-02-24T07:59:00;5.10;99.90
20839;DHT22;10580;51.092;6.828;2023-02-24T08:01:28;5.00;99.90
20839;DHT22;10580;51.092;6.828;2023-02-24T08:03:56;5.10;99.90
20839;DHT22;10580;51.092;6.828;2023-02-24T08:06:30;5.10;99.90
20839;DHT22;10580;51.092;6.828;2023-02-24T08:09:06;5.20;99.90
20839;DHT22;10580;51.092;6.828;2023-02-24T08:11:56;5.20;99.90
20839;DHT22;10580;51.092;6.828;2023-02-24T08:14:25;5.30;99.90
20839;DHT22;10580;51.092;6.828;2023-02-24T08:16:54;5.30;99.90
20839;DHT22;10580;51.092;6.828;2023-02-24T08:19:30;5.30;99.90
20839;DHT22;10580;51.092;6.828;2023-02-24T08:22:08;5.30;99.90
20839;DHT22;10580;51.092;6.828;2023-02-24T08:24:59;5.30;99.90
20839;DHT22;10580;51.092;6.828;2023-02-24T08:27:32;5.30;99.90
20839;DHT22;10580;51.092;6.828;2023-02-24T08:30:03;5.40;99.90
20839;DHT22;10580;51.092;6.828;2023-02-24T08:32:40;5.30;99.90
20839;DHT22;10580;51.092;6.828;2023-02-24T08:35:19;5.40;99.90
20839;DHT22;10580;51.092;6.828;2023-02-24T08:38:13;5.30;99.90
20839;DHT22;10580;51.092;6.828;2023-02-24T08:40:43;5.40;99.90
20839;DHT22;10580;51.092;6.828;2023-02-24T08:43:27;5.30;99.90
20839;DHT22;10580;51.092;6.828;2023-02-24T08:48:46;5.30;83.60
20839;DHT22;10580;51.092;6.828;2023-02-24T08:51:19;5.30;72.60
20839;DHT22;10580;51.092;6.828;2023-02-24T08:53:51;5.20;64.70
20839;DHT22;10580;51.092;6.828;2023-02-24T08:56:19;5.20;75.60
20839;DHT22;10580;51.092;6.828;2023-02-24T08:58:49;5.30;74.60
20839;DHT22;10580;51.092;6.828;2023-02-24T09:01:43;5.30;31.50
20839;DHT22;10580;51.092;6.828;2023-02-24T09:04:18;5.40;39.10
20839;DHT22;10580;51.092;6.828;2023-02-24T09:06:49;5.40;2.60
20839;DHT22;10580;51.092;6.828;2023-02-24T09:09:22;5.50;13.20
20839;DHT22;10580;51.092;6.828;2023-02-24T09:11:57;5.60;8.80
20839;DHT22;10580;51.092;6.828;2023-02-24T09:14:31;5.70;24.60
20839;DHT22;10580;51.092;6.828;2023-02-24T09:17:04;5.70;16.50
20839;DHT22;10580;51.092;6.828;2023-02-24T09:19:49;5.80;10.70
20839;DHT22;10580;51.092;6.828;2023-02-24T09:22:20;5.60;1.00
20839;DHT22;10580;51.092;6.828;2023-02-24T09:25:10;5.70;1.00
20839;DHT22;10580;51.092;6.828;2023-02-24T09:27:47;5.80;1.00
20839;DHT22;10580;51.092;6.828;2023-02-24T09:30:17;5.90;1.00
20839;DHT22;10580;51.092;6.828;2023-02-24T09:33:13;5.80;1.00
20839;DHT22;10580;51.092;6.828;2023-02-24T09:35:54;5.80;1.00
20839;DHT22;10580;51.092;6.828;2023-02-24T09:38:53;5.70;1.00
20839;DHT22;10580;51.092;6.828;2023-02-24T09:44:16;5.80;1.00
20839;DHT22;10580;51.092;6.828;2023-02-24T09:46:53;6.00;1.00
20839;DHT22;10580;51.092;6.828;2023-02-24T09:49:34;6.10;1.00
20839;DHT22;10580;51.092;6.828;2023-02-24T09:52:10;6.00;1.00
20839;DHT22;10580;51.092;6.828;2023-02-24T09:54:45;6.00;1.00
20839;DHT22;10580;51.092;6.828;2023-02-24T09:57:37;6.00;1.00
20839;DHT22;10580;51.092;6.828;2023-02-24T10:00:26;6.10;1.00
20839;DHT22;10580;51.092;6.828;2023-02-24T10:03:13;6.10;1.00
20839;DHT22;10580;51.092;6.828;2023-02-24T10:05:58;6.10;1.00
20839;DHT22;10580;51.092;6.828;2023-02-24T10:08:33;6.00;1.00
20839;DHT22;10580;51.092;6.828;2023-02-24T10:11:02;6.00;1.00
20839;DHT22;10580;51.092;6.828;2023-02-24T10:13:36;5.90;1.00
20839;DHT22;10580;51.092;6.828;2023-02-24T10:16:05;5.90;1.00
20839;DHT22;10580;51.092;6.828;2023-02-24T10:18:50;5.90;1.00
20839;DHT22;10580;51.092;6.828;2023-02-24T10:24:58;6.00;1.00
20839;DHT22;10580;51.092;6.828;2023-02-24T10:27:59;6.00;1.00
20839;DHT22;10580;51.092;6.828;2023-02-24T10:33:36;5.80;1.00
20839;DHT22;10580;51.092;6.828;2023-02-24T10:36:29;5.80;1.00
20839;DHT22;10580;51.092;6.828;2023-02-24T10:39:05;5.70;1.00
20839;DHT22;10580;51.092;6.828;2023-02-24T10:41:43;5.70;1.00
20839;DHT22;10580;51.092;6.828;2023-02-24T10:44:10;5.70;1.00
20839;DHT22;10580;51.092;6.828;2023-02-24T10:46:37;5.70;1.00
20839;DHT22;10580;51.092;6.828;2023-02-24T10:49:03;5.70;1.00
20839;DHT22;10580;51.092;6.828;2023-02-24T10:51:42;5.70;1.00
20839;DHT22;10580;51.092;6.828;2023-02-24T10:56:50;5.70;1.00
20839;DHT22;10580;51.092;6.828;2023-02-24T10:59:25;5.60;1.00
20839;DHT22;10580;51.092;6.828;2023-02-24T11:02:24;5.60;1.00
20839;DHT22;10580;51.092;6.828;2023-02-24T11:05:04;5.70;1.00
20839;DHT22;10580;51.092;6.828;2023-02-24T11:07:49;5.70;1.00
20839;DHT22;10580;51.092;6.828;2023-02-24T11:10:22;5.70;1.00
20839;DHT22;10580;51.092;6.828;2023-02-24T11:12:57;5.70;1.00
20839;DHT22;10580;51.092;6.828;2023-02-24T11:15:52;5.70;1.00
20839;DHT22;10580;51.092;6.828;2023-02-24T11:18:38;5.70;1.00
20839;DHT22;10580;51.092;6.828;2023-02-24T11:21:11;5.60;1.00
20839;DHT22;10580;51.092;6.828;2023-02-24T11:23:49;5.60;1.00
20839;DHT22;10580;51.092;6.828;2023-02-24T11:31:24;5.50;2.00
20839;DHT22;10580;51.092;6.828;2023-02-24T11:42:11;5.40;42.70
20839;DHT22;10580;51.092;6.828;2023-02-24T11:47:30;5.40;78.90
20839;DHT22;10580;51.092;6.828;2023-02-24T11:52:59;5.50;71.20
20839;DHT22;10580;51.092;6.828;2023-02-24T11:55:28;5.40;65.20
20839;DHT22;10580;51.092;6.828;2023-02-24T11:58:02;5.20;97.40
20839;DHT22;10580;51.092;6.828;2023-02-24T12:00:34;5.30;99.90
20839;DHT22;10580;51.092;6.828;2023-02-24T12:03:22;5.30;99.90
20839;DHT22;10580;51.092;6.828;2023-02-24T12:05:54;5.30;99.90
20839;DHT22;10580;51.092;6.828;2023-02-24T12:08:48;5.20;99.90
20839;DHT22;10580;51.092;6.828;2023-02-24T12:11:41;5.10;99.90
20839;DHT22;10580;51.092;6.828;2023-02-24T12:17:15;5.20;99.90
20839;DHT22;10580;51.092;6.828;2023-02-24T12:20:04;5.20;99.90
20839;DHT22;10580;51.092;6.828;2023-02-24T12:22:44;5.20;99.90
20839;DHT22;10580;51.092;6.828;2023-02-24T12:25:12;5.10;99.90
20839;DHT22;10580;51.092;6.828;2023-02-24T12:27:52;5.00;99.90
20839;DHT22;10580;51.092;6.828;2023-02-24T12:30:44;4.90;99.90
20839;DHT22;10580;51.092;6.828;2023-02-24T12:33:54;4.80;99.90
20839;DHT22;10580;51.092;6.828;2023-02-24T12:39:29;4.90;99.90
20839;DHT22;10580;51.092;6.828;2023-02-24T12:47:18;5.00;99.90
20839;DHT22;10580;51.092;6.828;2023-02-24T12:55:24;4.90;99.90
20839;DHT22;10580;51.092;6.828;2023-02-24T13:05:49;4.80;99.90
20839;DHT22;10580;51.092;6.828;2023-02-24T13:13:46;4.80;99.90
20839;DHT22;10580;51.092;6.828;2023-02-24T13:16:29;4.80;99.90
20839;DHT22;10580;51.092;6.828;2023-02-24T13:19:15;4.90;99.90
20839;DHT22;10580;51.092;6.828;2023-02-24T13:22:07;4.90;99.90
20839;DHT22;10580;51.092;6.828;2023-02-24T13:27:32;5.00;99.90
20839;DHT22;10580;51.092;6.828;2023-02-24T13:33:22;5.00;99.90
20839;DHT22;10580;51.092;6.828;2023-02-24T13:35:51;5.10;99.90
20839;DHT22;10580;51.092;6.828;2023-02-24T13:38:41;5.10;99.90
20839;DHT22;10580;51.092;6.828;2023-02-24T13:44:00;5.20;99.90
20839;DHT22;10580;51.092;6.828;2023-02-24T13:52:36;5.10;99.90
20839;DHT22;10580;51.092;6.828;2023-02-24T14:01:13;5.20;99.90
20839;DHT22;10580;51.092;6.828;2023-02-24T14:03:42;5.20;99.90
20839;DHT22;10580;51.092;6.828;2023-02-24T14:06:22;5.20;99.90
20839;DHT22;10580;51.092;6.828;2023-02-24T14:08:58;5.20;99.90
20839;DHT22;10580;51.092;6.828;2023-02-24T14:11:32;5.00;99.90
20839;DHT22;10580;51.092;6.828;2023-02-24T14:14:05;5.00;99.90
20839;DHT22;10580;51.092;6.828;2023-02-24T14:16:48;5.00;99.90
20839;DHT22;10580;51.092;6.828;2023-02-24T14:19:15;4.90;99.90
20839;DHT22;10580;51.092;6.828;2023-02-24T14:21:53;4.90;99.90
20839;DHT22;10580;51.092;6.828;2023-02-24T14:24:25;5.00;99.90
20839;DHT22;10580;51.092;6.828;2023-02-24T14:26:58;5.00;99.90
20839;DHT22;10580;51.092;6.828;2023-02-24T14:29:37;4.90;99.90
20839;DHT22;10580;51.092;6.828;2023-02-24T14:32:20;4.90;99.90
20839;DHT22;10580;51.092;6.828;2023-02-24T14:34:55;4.90;99.90
20839;DHT22;10580;51.092;6.828;2023-02-24T14:37:23;4.90;99.90
20839;DHT22;10580;51.092;6.828;2023-02-24T14:39:56;4.90;99.90
20839;DHT22;10580;51.092;6.828;2023-02-24T14:42:22;4.90;99.90
20839;DHT22;10580;51.092;6.828;2023-02-24T14:44:54;4.90;99.90
20839;DHT22;10580;51.092;6.828;2023-02-24T14:47:23;5.00;99.90
20839;DHT22;10580;51.092;6.828;2023-02-24T14:50:21;4.90;99.90
20839;DHT22;10580;51.092;6.828;2023-02-24T14:53:00;5.00;99.90
20839;DHT22;10580;51.092;6.828;2023-02-24T14:55:35;5.00;99.90
20839;DHT22;10580;51.092;6.828;2023-02-24T14:58:21;5.10;99.90
20839;DHT22;10580;51.092;6.828;2023-02-24T15:00:53;5.10;99.90
20839;DHT22;10580;51.092;6.828;2023-02-24T15:03:36;5.00;99.90
20839;DHT22;10580;51.092;6.828;2023-02-24T15:06:10;5.00;99.90
20839;DHT22;10580;51.092;6.828;2023-02-24T15:08:47;5.00;99.90
20839;DHT22;10580;51.092;6.828;2023-02-24T15:14:22;5.00;99.90
20839;DHT22;10580;51.092;6.828;2023-02-24T15:16:55;5.00;99.90
20839;DHT22;10580;51.092;6.828;2023-02-24T15:21:55;5.00;99.90
20839;DHT22;10580;51.092;6.828;2023-02-24T15:24:33;5.00;99.90
20839;DHT22;10580;51.092;6.828;2023-02-24T15:27:20;5.00;99.90
20839;DHT22;10580;51.092;6.828;2023-02-24T15:30:02;5.10;99.90
20839;DHT22;10580;51.092;6.828;2023-02-24T15:32:30;5.10;99.90
20839;DHT22;10580;51.092;6.828;2023-02-24T15:34:56;5.10;99.90
20839;DHT22;10580;51.092;6.828;2023-02-24T15:37:49;5.20;99.90
20839;DHT22;10580;51.092;6.828;2023-02-24T15:40:21;5.20;99.90
20839;DHT22;10580;51.092;6.828;2023-02-24T15:42:56;5.20;99.90
20839;DHT22;10580;51.092;6.828;2023-02-24T15:45:31;5.20;99.90
20839;DHT22;10580;51.092;6.828;2023-02-24T15:48:01;5.10;99.90
20839;DHT22;10580;51.092;6.828;2023-02-24T15:50:28;5.10;99.90
20839;DHT22;10580;51.092;6.828;2023-02-24T15:52:59;5.10;99.90
20839;DHT22;10580;51.092;6.828;2023-02-24T15:55:40;5.10;99.90
20839;DHT22;10580;51.092;6.828;2023-02-24T15:58:14;5.10;99.90
20839;DHT22;10580;51.092;6.828;2023-02-24T16:00:48;5.10;99.90
20839;DHT22;10580;51.092;6.828;2023-02-24T16:03:31;5.10;99.90
20839;DHT22;10580;51.092;6.828;2023-02-24T16:06:07;5.20;99.90
20839;DHT22;10580;51.092;6.828;2023-02-24T16:08:42;5.30;99.90
20839;DHT22;10580;51.092;6.828;2023-02-24T16:11:09;5.30;99.90
20839;DHT22;10580;51.092;6.828;2023-02-24T16:13:38;5.30;99.90
20839;DHT22;10580;51.092;6.828;2023-02-24T16:16:27;5.30;99.90
20839;DHT22;10580;51.092;6.828;2023-02-24T16:19:06;5.30;99.90
20839;DHT22;10580;51.092;6.828;2023-02-24T16:21:43;5.30;99.90
20839;DHT22;10580;51.092;6.828;2023-02-24T16:24:17;5.40;99.90
20839;DHT22;10580;51.092;6.828;2023-02-24T16:26:48;5.40;99.90
20839;DHT22;10580;51.092;6.828;2023-02-24T16:29:14;5.40;99.90
20839;DHT22;10580;51.092;6.828;2023-02-24T16:31:40;5.40;99.90
20839;DHT22;10580;51.092;6.828;2023-02-24T16:34:07;5.40;99.90
20839;DHT22;10580;51.092;6.828;2023-02-24T16:36:33;5.50;99.90
20839;DHT22;10580;51.092;6.828;2023-02-24T16:38:58;5.50;99.90
20839;DHT22;10580;51.092;6.828;2023-02-24T16:41:25;5.50;99.90
20839;DHT22;10580;51.092;6.828;2023-02-24T16:43:51;5.50;99.90
20839;DHT22;10580;51.092;6.828;2023-02-24T16:46:19;5.50;99.90
20839;DHT22;10580;51.092;6.828;2023-02-24T16:48:47;5.60;99.90
20839;DHT22;10580;51.092;6.828;2023-02-24T16:51:14;5.50;99.90
20839;DHT22;10580;51.092;6.828;2023-02-24T16:53:39;5.60;99.90
20839;DHT22;10580;51.092;6.828;2023-02-24T16:56:05;5.60;99.90
20839;DHT22;10580;51.092;6.828;2023-02-24T16:58:32;5.60;99.90
20839;DHT22;10580;51.092;6.828;2023-02-24T17:00:59;5.60;99.90
20839;DHT22;10580;51.092;6.828;2023-02-24T17:06:01;5.60;99.90
20839;DHT22;10580;51.092;6.828;2023-02-24T17:08:27;5.60;99.90
20839;DHT22;10580;51.092;6.828;2023-02-24T17:10:53;5.60;99.90
20839;DHT22;10580;51.092;6.828;2023-02-24T17:13:20;5.60;99.90
20839;DHT22;10580;51.092;6.828;2023-02-24T17:15:46;5.50;99.90
20839;DHT22;10580;51.092;6.828;2023-02-24T17:18:11;5.50;99.90
20839;DHT22;10580;51.092;6.828;2023-02-24T17:20:39;5.50;99.90
20839;DHT22;10580;51.092;6.828;2023-02-24T17:23:05;5.60;99.90
20839;DHT22;10580;51.092;6.828;2023-02-24T17:25:31;5.60;99.90
20839;DHT22;10580;51.092;6.828;2023-02-24T17:27:58;5.60;99.90
20839;DHT22;10580;51.092;6.828;2023-02-24T17:30:29;5.60;99.90
20839;DHT22;10580;51.092;6.828;2023-02-24T17:32:55;5.60;99.90
20839;DHT22;10580;51.092;6.828;2023-02-24T17:35:21;5.60;99.90
20839;DHT22;10580;51.092;6.828;2023-02-24T17:37:47;5.60;99.90
20839;DHT22;10580;51.092;6.828;2023-02-24T17:40:12;5.60;99.90
20839;DHT22;10580;51.092;6.828;2023-02-24T17:42:39;5.60;99.90
20839;DHT22;10580;51.092;6.828;2023-02-24T17:45:05;5.70;99.90
20839;DHT22;10580;51.092;6.828;2023-02-24T17:47:31;5.70;99.90
20839;DHT22;10580;51.092;6.828;2023-02-24T17:49:59;5.60;99.90
20839;DHT22;10580;51.092;6.828;2023-02-24T17:52:24;5.60;99.90
20839;DHT22;10580;51.092;6.828;2023-02-24T17:54:50;5.60;99.90
20839;DHT22;10580;51.092;6.828;2023-02-24T17:57:16;5.60;99.90
20839;DHT22;10580;51.092;6.828;2023-02-24T17:59:42;5.50;99.90
20839;DHT22;10580;51.092;6.828;2023-02-24T18:02:11;5.50;99.90
20839;DHT22;10580;51.092;6.828;2023-02-24T18:04:37;5.50;99.90
20839;DHT22;10580;51.092;6.828;2023-02-24T18:07:02;5.50;99.90
20839;DHT22;10580;51.092;6.828;2023-02-24T18:09:28;5.50;99.90
20839;DHT22;10580;51.092;6.828;2023-02-24T18:11:56;5.50;99.90
20839;DHT22;10580;51.092;6.828;2023-02-24T18:14:24;5.60;99.90
20839;DHT22;10580;51.092;6.828;2023-02-24T18:16:50;5.60;99.90
20839;DHT22;10580;51.092;6.828;2023-02-24T18:19:16;5.60;99.90
20839;DHT22;10580;51.092;6.828;2023-02-24T18:21:41;5.60;99.90
20839;DHT22;10580;51.092;6.828;2023-02-24T18:24:08;5.60;99.90
20839;DHT22;10580;51.092;6.828;2023-02-24T18:26:33;5.60;99.90
20839;DHT22;10580;51.092;6.828;2023-02-24T18:28:59;5.70;99.90